sensor_id;sensor_type;location;lat;lon;timestamp;pressure;altitude;pressure_sealevel;temperature;humidity
19600;BME280;9947;57.722;12.012;2023-04-06T00:00:17;101644.78;;;-1.44;100.00
19600;BME280;9947;57.722;12.012;2023-04-06T00:02:46;101640.41;;;-1.47;100.00
19600;BME280;9947;57.722;12.012;2023-04-06T00:05:18;101644.03;;;-1.54;100.00
19600;BME280;9947;57.722;12.012;2023-04-06T00:07:53;101644.94;;;-1.58;100.00
19600;BME280;9947;57.722;12.012;2023-04-06T00:10:30;101638.81;;;-1.62;100.00
19600;BME280;9947;57.722;12.012;2023-04-06T00:13:07;101631.69;;;-1.55;100.00
19600;BME280;9947;57.722;12.012;2023-04-06T00:15:42;101633.50;;;-1.62;100.00
19600;BME280;9947;57.722;12.012;2023-04-06T00:18:31;101639.72;;;-1.64;100.00
19600;BME280;9947;57.722;12.012;2023-04-06T00:20:58;101633.53;;;-1.63;100.00
19600;BME280;9947;57.722;12.012;2023-04-06T00:23:32;101630.88;;;-1.63;100.00
19600;BME280;9947;57.722;12.012;2023-04-06T00:25:59;101623.84;;;-1.67;100.00
19600;BME280;9947;57.722;12.012;2023-04-06T00:28:37;101631.00;;;-1.72;100.00
19600;BME280;9947;57.722;12.012;2023-04-06T00:31:11;101635.41;;;-1.73;100.00
19600;BME280;9947;57.722;12.012;2023-04-06T00:33:51;101629.28;;;-1.76;100.00
19600;BME280;9947;57.722;12.012;2023-04-06T00:36:20;101629.34;;;-1.84;100.00
19600;BME280;9947;57.722;12.012;2023-04-06T00:39:22;101624.91;;;-1.83;100.00
19600;BME280;9947;57.722;12.012;2023-04-06T00:44:18;101621.44;;;-1.87;100.00
19600;BME280;9947;57.722;12.012;2023-04-06T00:49:18;101626.78;;;-1.90;100.00
19600;BME280;9947;57.722;12.012;2023-04-06T00:54:10;101613.53;;;-1.92;100.00
19600;BME280;9947;57.722;12.012;2023-04-06T00:56:41;101610.91;;;-1.93;100.00
19600;BME280;9947;57.722;12.012;2023-04-06T00:59:16;101613.59;;;-1.96;100.00
19600;BME280;9947;57.722;12.012;2023-04-06T01:01:46;101607.47;;;-2.01;100.00
19600;BME280;9947;57.722;12.012;2023-04-06T01:04:24;101607.53;;;-2.04;100.00
19600;BME280;9947;57.722;12.012;2023-04-06T01:09:18;101604.84;;;-2.01;100.00
19600;BME280;9947;57.722;12.012;2023-04-06T01:14:11;101613.63;;;-1.98;100.00
19600;BME280;9947;57.722;12.012;2023-04-06T01:16:42;101605.72;;;-2.01;100.00
19600;BME280;9947;57.722;12.012;2023-04-06T01:19:31;101605.66;;;-1.98;100.00
19600;BME280;9947;57.722;12.012;2023-04-06T01:22:01;101602.16;;;-2.00;100.00
19600;BME280;9947;57.722;12.012;2023-04-06T01:24:43;101601.25;;;-1.97;100.00
19600;BME280;9947;57.722;12.012;2023-04-06T01:27:18;101600.44;;;-2.04;100.00
19600;BME280;9947;57.722;12.012;2023-04-06T01:29:55;101598.69;;;-2.05;100.00
19600;BME280;9947;57.722;12.012;2023-04-06T01:32:24;101605.75;;;-2.04;100.00
19600;BME280;9947;57.722;12.012;2023-04-06T01:34:58;101600.50;;;-2.07;100.00
19600;BME280;9947;57.722;12.012;2023-04-06T01:37:29;101602.25;;;-2.09;100.00
19600;BME280;9947;57.722;12.012;2023-04-06T01:40:06;101595.19;;;-2.10;100.00
19600;BME280;9947;57.722;12.012;2023-04-06T01:42:50;101594.34;;;-2.12;100.00
19600;BME280;9947;57.722;12.012;2023-04-06T01:48:03;101591.66;;;-2.09;100.00
19600;BME280;9947;57.722;12.012;2023-04-06T01:50:42;101590.78;;;-2.06;100.00
19600;BME280;9947;57.722;12.012;2023-04-06T01:53:11;101592.47;;;-2.02;100.00
19600;BME280;9947;57.722;12.012;2023-04-06T01:55:42;101588.94;;;-2.01;100.00
19600;BME280;9947;57.722;12.012;2023-04-06T01:58:11;101591.66;;;-2.06;100.00
19600;BME280;9947;57.722;12.012;2023-04-06T02:00:45;101585.47;;;-2.09;100.00
19600;BME280;9947;57.722;12.012;2023-04-06T02:03:14;101589.88;;;-2.05;100.00
19600;BME280;9947;57.722;12.012;2023-04-06T02:05:56;101581.03;;;-2.06;100.00
19600;BME280;9947;57.722;12.012;2023-04-06T02:08:27;101585.50;;;-2.08;100.00
19600;BME280;9947;57.722;12.012;2023-04-06T02:13:25;101590.78;;;-2.09;100.00
19600;BME280;9947;57.722;12.012;2023-04-06T02:18:23;101583.69;;;-2.09;100.00
19600;BME280;9947;57.722;12.012;2023-04-06T02:21:07;101589.91;;;-2.10;100.00
19600;BME280;9947;57.722;12.012;2023-04-06T02:23:37;101582.78;;;-2.05;100.00
19600;BME280;9947;57.722;12.012;2023-04-06T02:26:06;101587.25;;;-2.11;100.00
19600;BME280;9947;57.722;12.012;2023-04-06T02:28:49;101588.13;;;-2.11;100.00
19600;BME280;9947;57.722;12.012;2023-04-06T02:31:20;101580.16;;;-2.09;100.00
19600;BME280;9947;57.722;12.012;2023-04-06T02:34:04;101577.53;;;-2.09;100.00
19600;BME280;9947;57.722;12.012;2023-04-06T02:36:40;101585.50;;;-2.08;100.00
19600;BME280;9947;57.722;12.012;2023-04-06T02:39:14;101579.31;;;-2.11;100.00
19600;BME280;9947;57.722;12.012;2023-04-06T02:41:53;101582.84;;;-2.11;100.00
19600;BME280;9947;57.722;12.012;2023-04-06T02:44:28;101589.03;;;-2.10;100.00
19600;BME280;9947;57.722;12.012;2023-04-06T02:47:00;101585.50;;;-2.11;100.00
19600;BME280;9947;57.722;12.012;2023-04-06T02:49:43;101581.94;;;-2.07;100.00
19600;BME280;9947;57.722;12.012;2023-04-06T02:52:20;101587.25;;;-2.11;100.00
19600;BME280;9947;57.722;12.012;2023-04-06T02:57:14;101581.97;;;-2.11;100.00
19600;BME280;9947;57.722;12.012;2023-04-06T03:03:34;101578.50;;;-2.17;100.00
19600;BME280;9947;57.722;12.012;2023-04-06T03:06:10;101581.97;;;-2.13;100.00
19600;BME280;9947;57.722;12.012;2023-04-06T03:08:38;101586.47;;;-2.20;100.00
19600;BME280;9947;57.722;12.012;2023-04-06T03:11:08;101585.66;;;-2.25;100.00
19600;BME280;9947;57.722;12.012;2023-04-06T03:13:40;101583.00;;;-2.23;100.00
19600;BME280;9947;57.722;12.012;2023-04-06T03:16:07;101589.16;;;-2.21;100.00
19600;BME280;9947;57.722;12.012;2023-04-06T03:18:38;101590.03;;;-2.22;100.00
19600;BME280;9947;57.722;12.012;2023-04-06T03:21:05;101585.53;;;-2.15;100.00
19600;BME280;9947;57.722;12.012;2023-04-06T03:23:44;101592.69;;;-2.21;100.00
19600;BME280;9947;57.722;12.012;2023-04-06T03:26:12;101587.34;;;-2.19;100.00
19600;BME280;9947;57.722;12.012;2023-04-06T03:28:41;101594.38;;;-2.17;100.00
19600;BME280;9947;57.722;12.012;2023-04-06T03:31:19;101599.59;;;-2.07;100.00
19600;BME280;9947;57.722;12.012;2023-04-06T03:33:56;101594.38;;;-2.15;100.00
19600;BME280;9947;57.722;12.012;2023-04-06T03:36:24;101591.75;;;-2.17;100.00
19600;BME280;9947;57.722;12.012;2023-04-06T03:39:01;101592.72;;;-2.24;100.00
19600;BME280;9947;57.722;12.012;2023-04-06T03:41:28;101601.53;;;-2.23;100.00
19600;BME280;9947;57.722;12.012;2023-04-06T03:44:06;101601.59;;;-2.28;100.00
19600;BME280;9947;57.722;12.012;2023-04-06T03:46:34;101600.69;;;-2.27;100.00
19600;BME280;9947;57.722;12.012;2023-04-06T03:49:03;101608.66;;;-2.28;100.00
19600;BME280;9947;57.722;12.012;2023-04-06T03:51:32;101606.06;;;-2.33;100.00
19600;BME280;9947;57.722;12.012;2023-04-06T03:54:01;101606.06;;;-2.33;100.00
19600;BME280;9947;57.722;12.012;2023-04-06T03:56:35;101600.72;;;-2.28;100.00
19600;BME280;9947;57.722;12.012;2023-04-06T03:59:06;101605.19;;;-2.36;100.00
19600;BME280;9947;57.722;12.012;2023-04-06T04:01:37;101612.25;;;-2.37;100.00
19600;BME280;9947;57.722;12.012;2023-04-06T04:04:09;101606.09;;;-2.39;100.00
19600;BME280;9947;57.722;12.012;2023-04-06T04:06:55;101608.75;;;-2.39;100.00
19600;BME280;9947;57.722;12.012;2023-04-06T04:09:22;101605.22;;;-2.41;100.00
19600;BME280;9947;57.722;12.012;2023-04-06T04:11:57;101606.16;;;-2.45;100.00
19600;BME280;9947;57.722;12.012;2023-04-06T04:14:26;101606.19;;;-2.48;100.00
19600;BME280;9947;57.722;12.012;2023-04-06T04:16:54;101602.66;;;-2.47;100.00
19600;BME280;9947;57.722;12.012;2023-04-06T04:19:35;101602.69;;;-2.50;100.00
19600;BME280;9947;57.722;12.012;2023-04-06T04:22:05;101603.50;;;-2.43;100.00
19600;BME280;9947;57.722;12.012;2023-04-06T04:24:39;101604.38;;;-2.44;100.00
19600;BME280;9947;57.722;12.012;2023-04-06T04:27:06;101602.63;;;-2.44;100.00
19600;BME280;9947;57.722;12.012;2023-04-06T04:29:36;101605.22;;;-2.39;100.00
19600;BME280;9947;57.722;12.012;2023-04-06T04:32:04;101602.56;;;-2.38;100.00
19600;BME280;9947;57.722;12.012;2023-04-06T04:34:38;101606.03;;;-2.34;100.00
19600;BME280;9947;57.722;12.012;2023-04-06T04:37:07;101605.19;;;-2.33;100.00
19600;BME280;9947;57.722;12.012;2023-04-06T04:39:36;101611.31;;;-2.28;100.00
19600;BME280;9947;57.722;12.012;2023-04-06T04:42:06;101604.22;;;-2.28;100.00
19600;BME280;9947;57.722;12.012;2023-04-06T04:44:34;101601.56;;;-2.25;100.00
19600;BME280;9947;57.722;12.012;2023-04-06T04:47:03;101603.28;;;-2.22;100.00
19600;BME280;9947;57.722;12.012;2023-04-06T04:49:45;101604.13;;;-2.19;100.00
19600;BME280;9947;57.722;12.012;2023-04-06T04:52:19;101614.66;;;-2.12;100.00
19600;BME280;9947;57.722;12.012;2023-04-06T04:54:53;101615.53;;;-2.12;100.00
19600;BME280;9947;57.722;12.012;2023-04-06T04:57:20;101614.56;;;-2.03;100.00
19600;BME280;9947;57.722;12.012;2023-04-06T04:59:49;101616.34;;;-2.04;100.00
19600;BME280;9947;57.722;12.012;2023-04-06T05:02:18;101611.88;;;-1.99;100.00
19600;BME280;9947;57.722;12.012;2023-04-06T05:04:48;101608.25;;;-1.93;100.00
19600;BME280;9947;57.722;12.012;2023-04-06T05:07:18;101622.47;;;-1.99;100.00
19600;BME280;9947;57.722;12.012;2023-04-06T05:09:50;101617.09;;;-1.94;100.00
19600;BME280;9947;57.722;12.012;2023-04-06T05:12:24;101622.31;;;-1.87;100.00
19600;BME280;9947;57.722;12.012;2023-04-06T05:14:53;101614.31;;;-1.83;100.00
19600;BME280;9947;57.722;12.012;2023-04-06T05:17:23;101617.84;;;-1.81;100.00
19600;BME280;9947;57.722;12.012;2023-04-06T05:19:52;101622.25;;;-1.79;100.00
19600;BME280;9947;57.722;12.012;2023-04-06T05:22:21;101618.72;;;-1.82;100.00
19600;BME280;9947;57.722;12.012;2023-04-06T05:24:54;101624.00;;;-1.78;100.00
19600;BME280;9947;57.722;12.012;2023-04-06T05:27:24;101628.28;;;-1.68;100.00
19600;BME280;9947;57.722;12.012;2023-04-06T05:29:51;101631.72;;;-1.61;100.00
19600;BME280;9947;57.722;12.012;2023-04-06T05:32:21;101626.22;;;-1.44;100.00
19600;BME280;9947;57.722;12.012;2023-04-06T05:34:50;101615.75;;;-1.57;100.00
19600;BME280;9947;57.722;12.012;2023-04-06T05:37:23;101615.59;;;-1.43;100.00
19600;BME280;9947;57.722;12.012;2023-04-06T05:39:50;101621.91;;;-1.51;100.00
19600;BME280;9947;57.722;12.012;2023-04-06T05:42:18;101620.09;;;-1.48;100.00
19600;BME280;9947;57.722;12.012;2023-04-06T05:44:49;101618.00;;;-1.25;100.00
19600;BME280;9947;57.722;12.012;2023-04-06T05:47:24;101616.06;;;-1.13;100.00
19600;BME280;9947;57.722;12.012;2023-04-06T05:50:01;101618.63;;;-1.09;100.00
19600;BME280;9947;57.722;12.012;2023-04-06T05:52:31;101624.38;;;-0.78;100.00
19600;BME280;9947;57.722;12.012;2023-04-06T05:55:01;101626.75;;;-0.61;100.00
19600;BME280;9947;57.722;12.012;2023-04-06T05:57:33;101628.97;;;-0.89;100.00
19600;BME280;9947;57.722;12.012;2023-04-06T06:00:01;101629.97;;;-0.98;100.00
19600;BME280;9947;57.722;12.012;2023-04-06T06:02:39;101628.72;;;-0.72;100.00
19600;BME280;9947;57.722;12.012;2023-04-06T06:05:08;101626.75;;;-0.63;100.00
19600;BME280;9947;57.722;12.012;2023-04-06T06:07:50;101632.88;;;-0.57;100.00
19600;BME280;9947;57.722;12.012;2023-04-06T06:10:17;101630.13;;;-0.53;100.00
19600;BME280;9947;57.722;12.012;2023-04-06T06:12:47;101629.78;;;-0.32;100.00
19600;BME280;9947;57.722;12.012;2023-04-06T06:15:20;101635.09;;;-0.32;100.00
19600;BME280;9947;57.722;12.012;2023-04-06T06:17:48;101631.53;;;-0.31;100.00
19600;BME280;9947;57.722;12.012;2023-04-06T06:20:16;101633.22;;;-0.26;100.00
19600;BME280;9947;57.722;12.012;2023-04-06T06:25:34;101640.19;;;-0.19;100.00
19600;BME280;9947;57.722;12.012;2023-04-06T06:28:02;101631.66;;;-0.38;100.00
19600;BME280;9947;57.722;12.012;2023-04-06T06:30:33;101638.16;;;-0.56;100.00
19600;BME280;9947;57.722;12.012;2023-04-06T06:33:02;101633.69;;;-0.54;100.00
19600;BME280;9947;57.722;12.012;2023-04-06T06:35:31;101634.34;;;-0.40;100.00
19600;BME280;9947;57.722;12.012;2023-04-06T06:37:59;101634.53;;;-0.49;100.00
19600;BME280;9947;57.722;12.012;2023-04-06T06:40:28;101630.84;;;-0.42;100.00
19600;BME280;9947;57.722;12.012;2023-04-06T06:42:59;101634.72;;;-0.61;100.00
19600;BME280;9947;57.722;12.012;2023-04-06T06:45:29;101638.97;;;-0.52;100.00
19600;BME280;9947;57.722;12.012;2023-04-06T06:48:04;101642.66;;;-0.61;100.00
19600;BME280;9947;57.722;12.012;2023-04-06T06:50:33;101635.31;;;-0.44;100.00
19600;BME280;9947;57.722;12.012;2023-04-06T06:53:02;101636.28;;;-0.48;100.00
19600;BME280;9947;57.722;12.012;2023-04-06T06:55:29;101641.75;;;-0.58;100.00
19600;BME280;9947;57.722;12.012;2023-04-06T06:57:56;101639.00;;;-0.54;100.00
19600;BME280;9947;57.722;12.012;2023-04-06T07:00:35;101644.25;;;-0.48;100.00
19600;BME280;9947;57.722;12.012;2023-04-06T07:03:04;101645.22;;;-0.55;100.00
19600;BME280;9947;57.722;12.012;2023-04-06T07:05:45;101636.00;;;-0.33;100.00
19600;BME280;9947;57.722;12.012;2023-04-06T07:08:18;101637.69;;;-0.28;100.00
19600;BME280;9947;57.722;12.012;2023-04-06T07:10:58;101645.69;;;-0.30;100.00
19600;BME280;9947;57.722;12.012;2023-04-06T07:13:25;101639.63;;;0.11;100.00
19600;BME280;9947;57.722;12.012;2023-04-06T07:15:58;101642.75;;;-0.15;100.00
19600;BME280;9947;57.722;12.012;2023-04-06T07:18:26;101641.78;;;-0.09;100.00
19600;BME280;9947;57.722;12.012;2023-04-06T07:20:53;101635.41;;;-0.01;100.00
19600;BME280;9947;57.722;12.012;2023-04-06T07:23:21;101635.16;;;0.13;100.00
19600;BME280;9947;57.722;12.012;2023-04-06T07:25:49;101637.06;;;0.07;100.00
19600;BME280;9947;57.722;12.012;2023-04-06T07:28:20;101636.94;;;0.13;100.00
19600;BME280;9947;57.722;12.012;2023-04-06T07:30:49;101645.47;;;0.30;100.00
19600;BME280;9947;57.722;12.012;2023-04-06T07:33:18;101648.19;;;0.25;100.00
19600;BME280;9947;57.722;12.012;2023-04-06T07:35:49;101648.69;;;0.44;100.00
19600;BME280;9947;57.722;12.012;2023-04-06T07:38:18;101651.00;;;0.18;100.00
19600;BME280;9947;57.722;12.012;2023-04-06T07:40:55;101650.88;;;0.24;100.00
19600;BME280;9947;57.722;12.012;2023-04-06T07:43:24;101651.59;;;0.34;100.00
19600;BME280;9947;57.722;12.012;2023-04-06T07:45:51;101648.25;;;0.22;100.00
19600;BME280;9947;57.722;12.012;2023-04-06T07:48:20;101649.06;;;0.27;100.00
19600;BME280;9947;57.722;12.012;2023-04-06T07:50:47;101644.66;;;0.25;100.00
19600;BME280;9947;57.722;12.012;2023-04-06T07:53:17;101651.34;;;0.46;100.00
19600;BME280;9947;57.722;12.012;2023-04-06T07:55:44;101652.19;;;0.48;100.00
19600;BME280;9947;57.722;12.012;2023-04-06T07:58:16;101649.44;;;0.51;100.00
19600;BME280;9947;57.722;12.012;2023-04-06T08:00:44;101645.13;;;0.45;100.00
19600;BME280;9947;57.722;12.012;2023-04-06T08:03:11;101651.50;;;0.38;100.00
19600;BME280;9947;57.722;12.012;2023-04-06T08:05:39;101646.16;;;0.40;100.00
19600;BME280;9947;57.722;12.012;2023-04-06T08:08:17;101650.25;;;0.56;100.00
19600;BME280;9947;57.722;12.012;2023-04-06T08:10:45;101646.16;;;0.81;100.00
19600;BME280;9947;57.722;12.012;2023-04-06T08:13:12;101651.84;;;0.65;100.00
19600;BME280;9947;57.722;12.012;2023-04-06T08:15:40;101646.28;;;0.75;100.00
19600;BME280;9947;57.722;12.012;2023-04-06T08:18:07;101660.69;;;1.07;100.00
19600;BME280;9947;57.722;12.012;2023-04-06T08:20:36;101662.69;;;0.96;100.00
19600;BME280;9947;57.722;12.012;2023-04-06T08:23:05;101658.00;;;0.67;100.00
19600;BME280;9947;57.722;12.012;2023-04-06T08:25:35;101656.91;;;0.75;100.00
19600;BME280;9947;57.722;12.012;2023-04-06T08:28:07;101670.63;;;0.97;100.00
19600;BME280;9947;57.722;12.012;2023-04-06T08:30:35;101673.84;;;1.13;100.00
19600;BME280;9947;57.722;12.012;2023-04-06T08:33:03;101666.47;;;0.85;100.00
19600;BME280;9947;57.722;12.012;2023-04-06T08:35:31;101670.63;;;0.97;100.00
19600;BME280;9947;57.722;12.012;2023-04-06T08:37:58;101682.81;;;1.09;100.00
19600;BME280;9947;57.722;12.012;2023-04-06T08:40:30;101673.25;;;0.99;100.00
19600;BME280;9947;57.722;12.012;2023-04-06T08:42:59;101673.44;;;0.91;100.00
19600;BME280;9947;57.722;12.012;2023-04-06T08:45:34;101672.59;;;0.89;100.00
19600;BME280;9947;57.722;12.012;2023-04-06T08:48:12;101674.34;;;0.90;100.00
19600;BME280;9947;57.722;12.012;2023-04-06T08:50:43;101673.03;;;0.69;100.00
19600;BME280;9947;57.722;12.012;2023-04-06T08:53:14;101673.53;;;0.86;100.00
19600;BME280;9947;57.722;12.012;2023-04-06T08:55:45;101683.00;;;1.00;100.00
19600;BME280;9947;57.722;12.012;2023-04-06T08:58:14;101683.94;;;0.97;100.00
19600;BME280;9947;57.722;12.012;2023-04-06T09:00:43;101682.22;;;1.35;100.00
19600;BME280;9947;57.722;12.012;2023-04-06T09:03:12;101673.03;;;1.82;100.00
19600;BME280;9947;57.722;12.012;2023-04-06T09:05:43;101682.78;;;2.17;100.00
19600;BME280;9947;57.722;12.012;2023-04-06T09:08:11;101692.56;;;2.49;100.00
19600;BME280;9947;57.722;12.012;2023-04-06T09:10:41;101685.50;;;3.07;100.00
19600;BME280;9947;57.722;12.012;2023-04-06T09:13:12;101679.41;;;3.59;100.00
19600;BME280;9947;57.722;12.012;2023-04-06T09:15:39;101682.00;;;3.61;100.00
19600;BME280;9947;57.722;12.012;2023-04-06T09:18:06;101681.63;;;3.99;100.00
19600;BME280;9947;57.722;12.012;2023-04-06T09:20:42;101677.25;;;3.97;100.00
19600;BME280;9947;57.722;12.012;2023-04-06T09:23:20;101680.16;;;3.89;100.00
19600;BME280;9947;57.722;12.012;2023-04-06T09:25:48;101681.72;;;3.70;100.00
19600;BME280;9947;57.722;12.012;2023-04-06T09:28:20;101685.78;;;4.08;100.00
19600;BME280;9947;57.722;12.012;2023-04-06T09:30:51;101683.31;;;4.02;100.00
19600;BME280;9947;57.722;12.012;2023-04-06T09:33:24;101680.38;;;4.10;100.00
19600;BME280;9947;57.722;12.012;2023-04-06T09:35:53;101683.66;;;4.18;100.00
19600;BME280;9947;57.722;12.012;2023-04-06T09:38:33;101683.22;;;4.30;100.00
19600;BME280;9947;57.722;12.012;2023-04-06T09:41:01;101690.66;;;4.22;100.00
19600;BME280;9947;57.722;12.012;2023-04-06T09:43:41;101696.53;;;4.07;100.00
19600;BME280;9947;57.722;12.012;2023-04-06T09:46:09;101692.66;;;4.15;100.00
19600;BME280;9947;57.722;12.012;2023-04-06T09:48:37;101696.50;;;4.33;100.00
19600;BME280;9947;57.722;12.012;2023-04-06T09:51:06;101699.63;;;4.21;100.00
19600;BME280;9947;57.722;12.012;2023-04-06T09:53:38;101702.13;;;4.50;100.00
19600;BME280;9947;57.722;12.012;2023-04-06T09:56:12;101700.91;;;4.59;100.00
19600;BME280;9947;57.722;12.012;2023-04-06T09:58:46;101706.16;;;5.09;100.00
19600;BME280;9947;57.722;12.012;2023-04-06T10:01:26;101705.13;;;5.13;100.00
19600;BME280;9947;57.722;12.012;2023-04-06T10:04:03;101702.31;;;5.16;100.00
19600;BME280;9947;57.722;12.012;2023-04-06T10:06:35;101699.97;;;5.30;100.00
19600;BME280;9947;57.722;12.012;2023-04-06T10:09:09;101702.81;;;5.49;100.00
19600;BME280;9947;57.722;12.012;2023-04-06T10:11:41;101697.25;;;5.32;100.00
19600;BME280;9947;57.722;12.012;2023-04-06T10:14:12;101697.94;;;5.13;100.00
19600;BME280;9947;57.722;12.012;2023-04-06T10:16:44;101703.66;;;5.28;100.00
19600;BME280;9947;57.722;12.012;2023-04-06T10:19:16;101693.78;;;5.73;100.00
19600;BME280;9947;57.722;12.012;2023-04-06T10:21:48;101692.25;;;5.66;100.00
19600;BME280;9947;57.722;12.012;2023-04-06T10:24:18;101704.19;;;5.59;100.00
19600;BME280;9947;57.722;12.012;2023-04-06T10:26:57;101697.81;;;5.62;100.00
19600;BME280;9947;57.722;12.012;2023-04-06T10:29:51;101700.09;;;5.71;100.00
19600;BME280;9947;57.722;12.012;2023-04-06T10:32:18;101692.13;;;5.91;100.00
19600;BME280;9947;57.722;12.012;2023-04-06T10:34:45;101696.88;;;5.84;100.00
19600;BME280;9947;57.722;12.012;2023-04-06T10:37:14;101685.31;;;5.82;100.00
19600;BME280;9947;57.722;12.012;2023-04-06T10:39:52;101696.94;;;6.05;100.00
19600;BME280;9947;57.722;12.012;2023-04-06T10:42:24;101696.47;;;6.56;100.00
19600;BME280;9947;57.722;12.012;2023-04-06T10:44:54;101697.22;;;6.39;100.00
19600;BME280;9947;57.722;12.012;2023-04-06T10:47:21;101697.50;;;6.72;100.00
19600;BME280;9947;57.722;12.012;2023-04-06T10:49:52;101691.31;;;6.52;100.00
19600;BME280;9947;57.722;12.012;2023-04-06T10:52:19;101695.56;;;6.76;100.00
19600;BME280;9947;57.722;12.012;2023-04-06T10:54:48;101694.22;;;6.86;100.00
19600;BME280;9947;57.722;12.012;2023-04-06T10:57:30;101701.03;;;6.93;100.00
19600;BME280;9947;57.722;12.012;2023-04-06T11:00:00;101699.59;;;7.24;100.00
19600;BME280;9947;57.722;12.012;2023-04-06T11:02:28;101694.91;;;7.65;100.00
19600;BME280;9947;57.722;12.012;2023-04-06T11:04:56;101693.50;;;7.58;100.00
19600;BME280;9947;57.722;12.012;2023-04-06T11:07:24;101694.59;;;7.71;100.00
19600;BME280;9947;57.722;12.012;2023-04-06T11:09:52;101690.22;;;7.87;100.00
19600;BME280;9947;57.722;12.012;2023-04-06T11:12:32;101688.31;;;7.53;100.00
19600;BME280;9947;57.722;12.012;2023-04-06T11:15:07;101686.94;;;7.45;100.00
19600;BME280;9947;57.722;12.012;2023-04-06T11:17:36;101694.28;;;7.77;100.00
19600;BME280;9947;57.722;12.012;2023-04-06T11:20:12;101691.75;;;8.10;100.00
19600;BME280;9947;57.722;12.012;2023-04-06T11:22:50;101678.06;;;7.79;100.00
19600;BME280;9947;57.722;12.012;2023-04-06T11:25:20;101686.72;;;7.85;100.00
19600;BME280;9947;57.722;12.012;2023-04-06T11:27:51;101680.78;;;7.96;100.00
19600;BME280;9947;57.722;12.012;2023-04-06T11:30:26;101679.06;;;7.95;100.00
19600;BME280;9947;57.722;12.012;2023-04-06T11:33:01;101681.78;;;7.76;100.00
19600;BME280;9947;57.722;12.012;2023-04-06T11:35:31;101674.06;;;7.87;100.00
19600;BME280;9947;57.722;12.012;2023-04-06T11:38:03;101687.59;;;7.86;100.00
19600;BME280;9947;57.722;12.012;2023-04-06T11:40:30;101689.53;;;7.65;100.00
19600;BME280;9947;57.722;12.012;2023-04-06T11:42:59;101687.69;;;8.19;100.00
19600;BME280;9947;57.722;12.012;2023-04-06T11:45:42;101690.56;;;8.16;100.00
19600;BME280;9947;57.722;12.012;2023-04-06T11:48:18;101686.91;;;8.51;100.00
19600;BME280;9947;57.722;12.012;2023-04-06T11:50:59;101688.47;;;8.73;100.00
19600;BME280;9947;57.722;12.012;2023-04-06T11:53:43;101691.06;;;8.74;100.00
19600;BME280;9947;57.722;12.012;2023-04-06T11:56:26;101691.69;;;8.46;100.00
19600;BME280;9947;57.722;12.012;2023-04-06T11:58:57;101691.22;;;8.88;100.00
19600;BME280;9947;57.722;12.012;2023-04-06T12:01:27;101697.66;;;8.36;100.00
19600;BME280;9947;57.722;12.012;2023-04-06T12:03:56;101694.94;;;8.36;99.96
19600;BME280;9947;57.722;12.012;2023-04-06T12:06:31;101695.00;;;8.17;97.71
19600;BME280;9947;57.722;12.012;2023-04-06T12:09:07;101695.13;;;7.96;100.00
19600;BME280;9947;57.722;12.012;2023-04-06T12:11:34;101706.97;;;8.11;100.00
19600;BME280;9947;57.722;12.012;2023-04-06T12:14:12;101711.66;;;8.42;100.00
19600;BME280;9947;57.722;12.012;2023-04-06T12:16:42;101696.44;;;8.41;97.95
19600;BME280;9947;57.722;12.012;2023-04-06T12:19:10;101699.69;;;8.48;92.28
19600;BME280;9947;57.722;12.012;2023-04-06T12:21:45;101709.34;;;8.69;87.60
19600;BME280;9947;57.722;12.012;2023-04-06T12:24:16;101709.06;;;9.07;87.31
19600;BME280;9947;57.722;12.012;2023-04-06T12:26:44;101703.75;;;8.89;87.49
19600;BME280;9947;57.722;12.012;2023-04-06T12:29:19;101703.13;;;8.32;83.15
19600;BME280;9947;57.722;12.012;2023-04-06T12:31:49;101693.25;;;8.16;85.52
19600;BME280;9947;57.722;12.012;2023-04-06T12:34:17;101690.44;;;8.00;87.80
19600;BME280;9947;57.722;12.012;2023-04-06T12:36:46;101699.97;;;7.90;85.36
19600;BME280;9947;57.722;12.012;2023-04-06T12:39:13;101698.66;;;7.80;84.51
19600;BME280;9947;57.722;12.012;2023-04-06T12:41:44;101703.69;;;7.87;87.71
19600;BME280;9947;57.722;12.012;2023-04-06T12:44:11;101700.97;;;8.04;87.01
19600;BME280;9947;57.722;12.012;2023-04-06T12:46:45;101694.34;;;7.94;82.79
19600;BME280;9947;57.722;12.012;2023-04-06T12:49:15;101704.94;;;8.33;83.92
19600;BME280;9947;57.722;12.012;2023-04-06T12:51:48;101696.00;;;8.31;82.95
19600;BME280;9947;57.722;12.012;2023-04-06T12:54:16;101697.91;;;8.29;84.13
19600;BME280;9947;57.722;12.012;2023-04-06T12:56:44;101700.13;;;8.21;82.73
19600;BME280;9947;57.722;12.012;2023-04-06T12:59:13;101685.25;;;8.14;78.68
19600;BME280;9947;57.722;12.012;2023-04-06T13:01:41;101689.84;;;8.12;73.95
19600;BME280;9947;57.722;12.012;2023-04-06T13:04:10;101699.31;;;7.85;73.51
19600;BME280;9947;57.722;12.012;2023-04-06T13:06:40;101685.94;;;7.83;75.08
19600;BME280;9947;57.722;12.012;2023-04-06T13:09:08;101689.16;;;7.72;72.45
19600;BME280;9947;57.722;12.012;2023-04-06T13:11:35;101697.50;;;7.85;71.53
19600;BME280;9947;57.722;12.012;2023-04-06T13:14:02;101696.13;;;7.77;69.98
19600;BME280;9947;57.722;12.012;2023-04-06T13:16:31;101696.13;;;7.77;69.85
19600;BME280;9947;57.722;12.012;2023-04-06T13:18:58;101696.66;;;7.66;69.20
19600;BME280;9947;57.722;12.012;2023-04-06T13:21:33;101699.84;;;7.74;68.93
19600;BME280;9947;57.722;12.012;2023-04-06T13:24:06;101695.94;;;7.62;70.28
19600;BME280;9947;57.722;12.012;2023-04-06T13:26:34;101694.84;;;7.66;69.73
19600;BME280;9947;57.722;12.012;2023-04-06T13:29:01;101690.78;;;7.58;70.47
19600;BME280;9947;57.722;12.012;2023-04-06T13:31:31;101689.63;;;7.63;68.73
19600;BME280;9947;57.722;12.012;2023-04-06T13:33:59;101699.19;;;7.69;68.06
19600;BME280;9947;57.722;12.012;2023-04-06T13:36:29;101685.50;;;7.73;66.51